Time;durP1;ratioP1;P1;durP2;ratioP2;P2;SDS_P1;SDS_P2;PMS_P1;PMS_P2;Temp;Humidity;BMP_temperature;BMP_pressure;BME280_temperature;BME280_humidity;BME280_pressure;Samples;Min_cycle;Max_cycle;Signal;HPM_P1;HPM_P2
2023/12/09 00:01:24;;;;;;;36.37;13.37;;;;;;;2.76;100.00;100677.69;6022147;28;20486;-72
2023/12/09 00:04:19;;;;;;;32.90;11.70;;;;;;;2.81;100.00;100679.09;6021993;28;20124;-73
2023/12/09 00:07:14;;;;;;;43.63;14.37;;;;;;;2.80;100.00;100671.34;6023945;28;20030;-72
2023/12/09 00:10:10;;;;;;;37.60;12.77;;;;;;;2.82;100.00;100664.22;6021768;28;20486;-73
2023/12/09 00:13:05;;;;;;;33.63;13.60;;;;;;;2.85;100.00;100674.50;6022414;28;20037;-72
2023/12/09 00:16:01;;;;;;;37.88;12.48;;;;;;;2.92;100.00;100683.63;6021805;28;20049;-73
2023/12/09 00:18:58;;;;;;;33.40;12.67;;;;;;;2.95;100.00;100680.84;6021736;28;20034;-73
2023/12/09 00:21:53;;;;;;;34.10;12.05;;;;;;;2.91;100.00;100684.56;6021750;28;20522;-72
2023/12/09 00:24:49;;;;;;;31.53;11.67;;;;;;;2.98;100.00;100680.63;6014879;28;20062;-71
2023/12/09 00:27:44;;;;;;;30.80;10.53;;;;;;;2.98;100.00;100670.16;6025969;28;20030;-74
2023/12/09 00:30:39;;;;;;;41.17;13.97;;;;;;;3.01;100.00;100680.44;6021030;28;20398;-72
2023/12/09 00:33:35;;;;;;;32.43;12.03;;;;;;;3.01;100.00;100696.16;6021519;28;20038;-72
2023/12/09 00:36:30;;;;;;;33.50;11.68;;;;;;;2.97;100.00;100685.03;6021606;28;20038;-72
2023/12/09 00:39:27;;;;;;;38.30;12.70;;;;;;;3.03;100.00;100693.44;6017702;28;20509;-72
2023/12/09 00:42:22;;;;;;;37.55;12.48;;;;;;;2.95;100.00;100686.06;6021479;28;20030;-71
2023/12/09 00:45:17;;;;;;;34.40;12.13;;;;;;;3.00;100.00;100694.47;6023192;28;20046;-72
2023/12/09 00:48:13;;;;;;;35.53;12.50;;;;;;;2.94;100.00;100700.94;6027101;28;20435;-72
2023/12/09 00:51:08;;;;;;;36.10;11.50;;;;;;;2.80;100.00;100694.91;6027981;28;20026;-72
2023/12/09 00:54:03;;;;;;;32.00;12.10;;;;;;;2.84;100.00;100699.84;6033491;28;20081;-73
2023/12/09 00:56:59;;;;;;;34.10;11.30;;;;;;;2.80;100.00;100684.44;6030646;28;20033;-72
2023/12/09 00:59:54;;;;;;;35.17;11.47;;;;;;;2.83;100.00;100684.22;6027958;28;20045;-72
2023/12/09 01:02:49;;;;;;;36.07;12.93;;;;;;;2.85;100.00;100695.47;6027408;28;20042;-72
2023/12/09 01:05:44;;;;;;;39.43;11.87;;;;;;;2.87;100.00;100689.19;6029260;28;20441;-72
2023/12/09 01:08:40;;;;;;;36.80;12.50;;;;;;;2.89;100.00;100692.53;6028159;28;20117;-72
2023/12/09 01:11:35;;;;;;;40.93;13.07;;;;;;;2.83;100.00;100676.38;6030307;28;20049;-73
2023/12/09 01:14:30;;;;;;;34.47;13.27;;;;;;;2.80;100.00;100666.94;6027804;28;20034;-72
2023/12/09 01:17:26;;;;;;;33.17;11.65;;;;;;;2.90;100.00;100691.59;6028606;28;20081;-72
2023/12/09 01:20:21;;;;;;;34.33;12.37;;;;;;;2.86;100.00;100676.16;6028074;28;20042;-73
2023/12/09 01:23:16;;;;;;;33.80;11.67;;;;;;;2.87;100.00;100694.41;6027715;28;20405;-72
2023/12/09 01:26:12;;;;;;;36.67;12.43;;;;;;;2.88;100.00;100679.56;6028231;28;20339;-72
2023/12/09 01:29:07;;;;;;;28.43;10.17;;;;;;;2.93;100.00;100685.34;6028013;28;20536;-72
2023/12/09 01:32:03;;;;;;;26.03;11.03;;;;;;;2.89;100.00;100668.97;6030399;28;20281;-73
2023/12/09 01:34:58;;;;;;;29.67;10.73;;;;;;;2.95;100.00;100686.06;6027902;28;20517;-71
2023/12/09 01:37:53;;;;;;;29.87;10.30;;;;;;;2.96;100.00;100678.09;6028232;28;20034;-72
2023/12/09 01:40:55;;;;;;;31.77;12.13;;;;;;;2.94;100.00;100674.75;6026272;28;20049;-72
2023/12/09 01:43:50;;;;;;;29.92;9.32;;;;;;;2.92;100.00;100670.53;6027475;28;20545;-72
2023/12/09 01:46:46;;;;;;;32.83;11.80;;;;;;;2.89;100.00;100675.97;6029844;28;20044;-72
2023/12/09 01:49:41;;;;;;;28.52;10.00;;;;;;;2.88;100.00;100669.91;6010012;28;20035;-72
2023/12/09 01:52:37;;;;;;;30.87;11.10;;;;;;;2.83;100.00;100676.38;6027032;28;20034;-72
2023/12/09 01:55:33;;;;;;;25.17;9.50;;;;;;;2.79;100.00;100695.84;6029806;28;20277;-71
2023/12/09 01:58:28;;;;;;;38.75;12.02;;;;;;;2.71;100.00;100688.47;6033271;28;20046;-72
2023/12/09 02:01:25;;;;;;;29.17;8.88;;;;;;;2.63;100.00;100692.50;6031004;28;20042;-71
2023/12/09 02:04:21;;;;;;;29.58;10.68;;;;;;;2.59;100.00;100683.16;6030548;28;20040;-72
2023/12/09 02:07:17;;;;;;;25.15;9.82;;;;;;;2.63;100.00;100684.66;6027372;28;20022;-73
2023/12/09 02:10:12;;;;;;;30.42;12.45;;;;;;;2.61;100.00;100689.16;6029868;28;20084;-72
2023/12/09 02:13:12;;;;;;;32.80;12.83;;;;;;;2.57;100.00;100678.03;6034033;28;20041;-72
2023/12/09 02:16:11;;;;;;;29.67;10.90;;;;;;;2.58;100.00;100689.34;6027636;28;20037;-72
2023/12/09 02:19:10;;;;;;;34.42;12.38;;;;;;;2.60;100.00;100680.47;6009740;28;20045;-72
2023/12/09 02:22:06;;;;;;;34.55;10.93;;;;;;;2.60;100.00;100687.47;6035467;28;20034;-72
2023/12/09 02:25:02;;;;;;;36.65;12.27;;;;;;;2.54;100.00;100685.22;6026686;28;20026;-72
2023/12/09 02:28:00;;;;;;;34.58;11.23;;;;;;;2.58;100.00;100676.25;6033265;28;20184;-73
2023/12/09 02:31:05;;;;;;;31.70;11.30;;;;;;;2.65;100.00;100678.38;6025822;28;20030;-74
2023/12/09 02:34:01;;;;;;;31.15;11.68;;;;;;;2.60;100.00;100666.53;6026019;28;20038;-73
2023/12/09 02:36:57;;;;;;;30.75;12.55;;;;;;;2.63;100.00;100675.03;6029814;28;20027;-73
2023/12/09 02:39:53;;;;;;;25.42;9.60;;;;;;;2.67;100.00;100671.25;6006278;28;20125;-73
2023/12/09 02:42:49;;;;;;;28.85;11.05;;;;;;;2.74;100.00;100674.34;6008090;28;20528;-72
2023/12/09 02:45:45;;;;;;;27.98;10.80;;;;;;;2.68;100.00;100677.34;6026044;28;20034;-73
2023/12/09 02:48:41;;;;;;;24.40;8.73;;;;;;;2.70;100.00;100676.31;6025856;28;20041;-73
2023/12/09 02:51:36;;;;;;;25.50;9.47;;;;;;;2.68;100.00;100688.66;6026156;28;20623;-72
2023/12/09 02:54:31;;;;;;;26.40;10.10;;;;;;;2.66;100.00;100679.22;6027093;28;20042;-72
2023/12/09 02:57:27;;;;;;;30.80;10.33;;;;;;;2.71;100.00;100682.41;6026293;28;20038;-74
2023/12/09 03:00:22;;;;;;;31.23;11.13;;;;;;;2.76;100.00;100688.19;6026167;28;20371;-73
2023/12/09 03:03:17;;;;;;;27.37;10.53;;;;;;;2.79;100.00;100677.50;6024970;28;20040;-73
2023/12/09 03:06:12;;;;;;;24.93;9.87;;;;;;;2.80;100.00;100682.63;6026345;28;20057;-74
2023/12/09 03:09:08;;;;;;;21.33;9.30;;;;;;;2.80;100.00;100668.72;6025035;28;20410;-72
2023/12/09 03:12:03;;;;;;;24.07;9.70;;;;;;;2.82;100.00;100674.69;6025629;28;20473;-72
2023/12/09 03:14:59;;;;;;;27.63;9.25;;;;;;;2.91;100.00;100685.41;6025450;28;20026;-74
2023/12/09 03:17:54;;;;;;;22.57;8.63;;;;;;;2.96;100.00;100682.53;6033155;28;20062;-74
2023/12/09 03:20:49;;;;;;;21.60;7.80;;;;;;;3.03;100.00;100673.31;6025811;28;20129;-72
2023/12/09 03:23:44;;;;;;;25.87;9.40;;;;;;;2.99;100.00;100672.66;6025982;28;20474;-73
2023/12/09 03:26:40;;;;;;;22.73;8.50;;;;;;;2.97;100.00;100664.06;6026633;28;20054;-72
2023/12/09 03:29:36;;;;;;;26.10;9.10;;;;;;;2.97;100.00;100644.91;6032294;28;20096;-72
2023/12/09 03:32:31;;;;;;;26.63;9.88;;;;;;;3.02;100.00;100655.91;6025835;28;20374;-73
2023/12/09 03:35:26;;;;;;;28.50;9.90;;;;;;;2.96;100.00;100645.84;6024928;28;20664;-72
2023/12/09 03:38:21;;;;;;;26.87;9.60;;;;;;;2.99;100.00;100640.41;6025695;28;20470;-72
2023/12/09 03:41:17;;;;;;;27.07;9.27;;;;;;;3.06;100.00;100652.16;6025402;28;20285;-73
2023/12/09 03:44:12;;;;;;;20.70;8.87;;;;;;;3.04;100.00;100648.81;6025325;28;20038;-73
2023/12/09 03:47:07;;;;;;;22.97;8.50;;;;;;;3.10;100.00;100650.19;6028108;28;20034;-72
2023/12/09 03:50:03;;;;;;;26.37;8.47;;;;;;;3.03;100.00;100641.03;6011090;28;20042;-73
2023/12/09 03:52:58;;;;;;;29.38;10.07;;;;;;;3.08;100.00;100642.41;6024541;28;20401;-73
2023/12/09 03:55:53;;;;;;;19.80;8.53;;;;;;;3.07;100.00;100638.16;6025313;28;20084;-71
2023/12/09 03:58:49;;;;;;;27.53;10.43;;;;;;;3.03;100.00;100626.19;6025581;28;20498;-73
2023/12/09 04:01:51;;;;;;;32.97;11.70;;;;;;;3.07;100.00;100632.06;6027205;28;20080;-73
2023/12/09 04:04:46;;;;;;;25.08;8.95;;;;;;;3.06;100.00;100619.91;6025003;28;20030;-73
2023/12/09 04:07:42;;;;;;;25.97;9.83;;;;;;;3.07;100.00;100627.66;6025106;28;20648;-72
2023/12/09 04:10:38;;;;;;;27.40;10.20;;;;;;;2.96;100.00;100609.19;6024968;28;20053;-73
2023/12/09 04:13:33;;;;;;;29.42;11.20;;;;;;;2.95;100.00;100604.88;6026963;28;20049;-72
2023/12/09 04:16:28;;;;;;;24.97;9.47;;;;;;;2.89;100.00;100613.97;6030992;28;20045;-73
2023/12/09 04:19:24;;;;;;;29.27;11.20;;;;;;;2.83;100.00;100613.53;6023865;28;20292;-72
2023/12/09 04:22:19;;;;;;;27.03;9.47;;;;;;;2.80;100.00;100605.91;6028397;28;20277;-73
2023/12/09 04:25:14;;;;;;;28.63;8.53;;;;;;;2.84;100.00;100615.22;6029873;28;20034;-73
2023/12/09 04:28:11;;;;;;;21.77;8.53;;;;;;;2.82;100.00;100614.47;6029821;28;20077;-74
2023/12/09 04:31:06;;;;;;;28.23;9.45;;;;;;;2.90;100.00;100614.81;6026411;28;20130;-73
2023/12/09 04:34:02;;;;;;;27.13;9.65;;;;;;;2.98;100.00;100628.25;6027205;28;20030;-73
2023/12/09 04:36:57;;;;;;;26.93;9.93;;;;;;;2.96;100.00;100603.97;6027331;28;20034;-73
2023/12/09 04:39:52;;;;;;;24.07;9.73;;;;;;;3.03;100.00;100613.06;6030674;28;20029;-73
2023/12/09 04:42:48;;;;;;;25.10;9.53;;;;;;;3.06;100.00;100615.50;6027292;28;20038;-72
2023/12/09 04:45:43;;;;;;;26.97;10.27;;;;;;;3.12;100.00;100615.09;6030804;28;20508;-73
2023/12/09 04:48:38;;;;;;;25.95;9.30;;;;;;;3.13;100.00;100598.44;6027777;28;20521;-74
2023/12/09 04:51:33;;;;;;;26.00;9.40;;;;;;;3.17;100.00;100613.00;6029373;28;20045;-73
2023/12/09 04:54:29;;;;;;;27.93;10.07;;;;;;;3.16;100.00;100608.69;6011600;28;20034;-74
2023/12/09 04:57:24;;;;;;;27.43;10.23;;;;;;;3.07;100.00;100598.84;6028154;28;20524;-74
2023/12/09 05:00:19;;;;;;;26.17;10.07;;;;;;;3.08;100.00;100597.91;6032381;28;20386;-73
2023/12/09 05:03:15;;;;;;;29.17;10.90;;;;;;;2.93;100.00;100593.69;6028857;28;20312;-73
2023/12/09 05:06:11;;;;;;;25.60;9.25;;;;;;;2.89;100.00;100590.41;6028759;28;20273;-74
2023/12/09 05:09:08;;;;;;;30.37;9.83;;;;;;;2.93;100.00;100593.69;6028838;28;20034;-74
2023/12/09 05:12:04;;;;;;;26.50;10.20;;;;;;;2.87;100.00;100583.59;6032550;28;20281;-75
2023/12/09 05:14:59;;;;;;;29.85;10.82;;;;;;;2.87;100.00;100588.84;6028469;28;20038;-73
2023/12/09 05:17:54;;;;;;;26.67;8.60;;;;;;;2.85;100.00;100575.81;6028718;28;20023;-73
2023/12/09 05:20:50;;;;;;;27.47;9.90;;;;;;;2.84;100.00;100578.56;6031761;28;20042;-74
2023/12/09 05:23:46;;;;;;;24.97;10.67;;;;;;;2.81;100.00;100578.75;6028405;28;20030;-73
2023/12/09 05:26:41;;;;;;;28.85;11.13;;;;;;;2.79;100.00;100593.72;6028732;28;20034;-74
2023/12/09 05:29:36;;;;;;;22.43;9.90;;;;;;;2.73;100.00;100591.50;6028530;28;20038;-74
2023/12/09 05:32:32;;;;;;;25.57;8.90;;;;;;;2.70;100.00;100595.16;6027220;28;20527;-74
2023/12/09 05:35:27;;;;;;;22.00;9.03;;;;;;;2.62;100.00;100600.06;6026306;28;20034;-73
2023/12/09 05:38:23;;;;;;;22.85;7.47;;;;;;;2.64;100.00;100599.94;6027618;28;20104;-75
2023/12/09 05:41:18;;;;;;;20.45;7.32;;;;;;;2.73;100.00;100592.34;6027495;28;20221;-74
2023/12/09 05:44:14;;;;;;;20.97;8.03;;;;;;;2.80;100.00;100582.34;6025666;28;20037;-72
2023/12/09 05:47:09;;;;;;;26.47;7.40;;;;;;;2.70;100.00;100592.53;6028288;28;20022;-73
2023/12/09 05:50:05;;;;;;;20.70;8.48;;;;;;;2.84;100.00;100591.66;6027403;28;20309;-74
2023/12/09 05:53:00;;;;;;;21.58;8.63;;;;;;;2.77;100.00;100585.16;6027314;28;20042;-74
2023/12/09 05:55:56;;;;;;;22.73;9.10;;;;;;;2.78;100.00;100585.03;6027009;28;20097;-73
2023/12/09 05:58:51;;;;;;;29.30;8.37;;;;;;;2.76;100.00;100588.69;6026833;28;20474;-74
2023/12/09 06:01:46;;;;;;;26.90;9.63;;;;;;;2.68;100.00;100575.25;6027026;28;20038;-74
2023/12/09 06:04:42;;;;;;;22.60;8.27;;;;;;;2.67;100.00;100582.28;6026286;28;20053;-74
2023/12/09 06:07:37;;;;;;;30.77;9.10;;;;;;;2.74;100.00;100578.34;6027324;28;20113;-73
2023/12/09 06:10:32;;;;;;;21.97;9.50;;;;;;;2.77;100.00;100587.75;6028683;28;20030;-73
2023/12/09 06:13:28;;;;;;;26.93;9.60;;;;;;;2.73;100.00;100578.41;6026792;28;20030;-74
2023/12/09 06:16:23;;;;;;;20.03;8.50;;;;;;;2.69;100.00;100587.44;6026774;28;20038;-74
2023/12/09 06:19:18;;;;;;;22.07;7.87;;;;;;;2.70;100.00;100594.31;6025929;28;20113;-74
2023/12/09 06:22:13;;;;;;;24.30;9.00;;;;;;;2.72;100.00;100597.66;6026614;28;20337;-74
2023/12/09 06:25:09;;;;;;;21.60;9.07;;;;;;;2.68;100.00;100593.59;6026230;28;20482;-73
2023/12/09 06:28:04;;;;;;;22.97;7.90;;;;;;;2.70;100.00;100597.78;6026694;28;20485;-74
2023/12/09 06:31:01;;;;;;;22.50;9.50;;;;;;;2.67;100.00;100597.97;6027878;28;20413;-74
2023/12/09 06:33:56;;;;;;;26.98;9.82;;;;;;;2.73;100.00;100601.97;6024962;28;20038;-73
2023/12/09 06:36:51;;;;;;;24.50;9.03;;;;;;;2.72;100.00;100592.44;6025094;28;20412;-73
2023/12/09 06:39:47;;;;;;;26.35;9.80;;;;;;;2.78;100.00;100592.03;6026127;28;21728;-74
2023/12/09 06:42:42;;;;;;;21.80;9.53;;;;;;;2.72;100.00;100589.81;6026092;28;20077;-75
2023/12/09 06:45:37;;;;;;;27.37;10.10;;;;;;;2.63;100.00;100582.56;6027921;28;20272;-74
2023/12/09 06:48:33;;;;;;;22.63;7.83;;;;;;;2.64;100.00;100586.84;6026088;28;20037;-73
2023/12/09 06:51:28;;;;;;;23.40;8.63;;;;;;;2.68;100.00;100583.13;6025349;28;20039;-74
2023/12/09 06:54:23;;;;;;;31.50;11.07;;;;;;;2.65;100.00;100578.91;6026104;28;20046;-73
2023/12/09 06:57:19;;;;;;;19.27;7.93;;;;;;;2.62;100.00;100579.13;6025911;28;20029;-75
2023/12/09 07:00:15;;;;;;;22.38;8.48;;;;;;;2.69;100.00;100575.16;6024156;28;20050;-73
2023/12/09 07:03:11;;;;;;;19.90;7.80;;;;;;;2.61;100.00;100579.22;6027889;28;20088;-73
2023/12/09 07:06:06;;;;;;;15.82;7.38;;;;;;;2.64;100.00;100585.09;6025529;28;20077;-74
2023/12/09 07:09:02;;;;;;;21.15;7.65;;;;;;;2.64;100.00;100576.38;6025672;28;20355;-73
2023/12/09 07:11:57;;;;;;;21.27;8.15;;;;;;;2.63;100.00;100579.97;6025716;28;20054;-74
2023/12/09 07:14:53;;;;;;;27.57;9.57;;;;;;;2.65;100.00;100583.31;6025070;28;20045;-74
2023/12/09 07:17:48;;;;;;;21.07;8.10;;;;;;;2.61;100.00;100584.47;6025358;28;20291;-74
2023/12/09 07:20:44;;;;;;;23.53;8.73;;;;;;;2.64;100.00;100592.09;6024263;28;20045;-74
2023/12/09 07:23:40;;;;;;;20.33;7.80;;;;;;;2.63;100.00;100606.97;6024465;28;20048;-74
2023/12/09 07:26:35;;;;;;;18.88;7.63;;;;;;;2.59;100.00;100595.00;6025745;28;20035;-73
2023/12/09 07:29:30;;;;;;;23.20;7.87;;;;;;;2.64;100.00;100597.31;6025981;28;20060;-75
2023/12/09 07:32:27;;;;;;;28.33;10.00;;;;;;;2.66;100.00;100600.72;6024226;28;20026;-73
2023/12/09 07:35:22;;;;;;;18.35;8.30;;;;;;;2.66;100.00;100611.19;6024397;28;20042;-74
2023/12/09 07:38:20;;;;;;;24.00;9.80;;;;;;;2.70;100.00;100602.16;6024480;28;20112;-74
2023/12/09 07:41:15;;;;;;;21.73;9.27;;;;;;;2.69;100.00;100574.34;6023915;28;20073;-74
2023/12/09 07:44:11;;;;;;;22.73;9.33;;;;;;;2.76;100.00;100588.69;6024802;28;20023;-74
2023/12/09 07:47:06;;;;;;;19.57;8.70;;;;;;;2.82;100.00;100581.28;6026374;28;20064;-73
2023/12/09 07:50:01;;;;;;;23.00;8.63;;;;;;;2.78;100.00;100574.56;6025791;28;20097;-75
2023/12/09 07:52:56;;;;;;;24.53;10.27;;;;;;;2.88;100.00;100574.81;6023758;28;20481;-73
2023/12/09 07:55:52;;;;;;;18.80;8.60;;;;;;;2.86;100.00;100555.72;6024064;28;20034;-74
2023/12/09 07:58:47;;;;;;;27.73;10.10;;;;;;;2.85;100.00;100546.22;6024558;28;20081;-73
2023/12/09 08:01:42;;;;;;;18.53;7.77;;;;;;;2.88;100.00;100546.00;6025352;28;20421;-72
2023/12/09 08:04:38;;;;;;;25.63;9.43;;;;;;;2.94;100.00;100542.97;6024443;28;20085;-74
2023/12/09 08:07:34;;;;;;;23.35;8.80;;;;;;;2.96;100.00;100546.34;6024608;28;20625;-73
2023/12/09 08:10:29;;;;;;;19.40;8.20;;;;;;;2.98;100.00;100533.97;6026138;28;20111;-74
2023/12/09 08:13:24;;;;;;;24.27;7.90;;;;;;;3.03;100.00;100537.13;6024650;28;20269;-76
2023/12/09 08:16:20;;;;;;;22.67;8.13;;;;;;;2.96;100.00;100526.22;6023396;28;20049;-76
2023/12/09 08:19:16;;;;;;;23.83;8.73;;;;;;;3.09;100.00;100530.63;6024769;28;20436;-74
2023/12/09 08:22:12;;;;;;;20.50;8.30;;;;;;;3.17;100.00;100526.56;6024096;28;20093;-73
2023/12/09 08:25:09;;;;;;;24.45;9.13;;;;;;;3.26;100.00;100520.69;6024687;28;20046;-73
2023/12/09 08:28:05;;;;;;;18.40;7.38;;;;;;;3.40;100.00;100511.88;6025310;28;20109;-73
2023/12/09 08:31:03;;;;;;;20.85;7.25;;;;;;;3.50;100.00;100515.56;6023893;28;20041;-73
2023/12/09 08:33:59;;;;;;;19.48;6.28;;;;;;;3.61;100.00;100526.94;6023753;28;20470;-73
2023/12/09 08:36:54;;;;;;;17.90;7.43;;;;;;;3.70;100.00;100520.25;6023888;28;20073;-72
2023/12/09 08:39:49;;;;;;;22.77;7.90;;;;;;;3.74;100.00;100505.13;6023760;28;20038;-72
2023/12/09 08:42:45;;;;;;;19.57;7.87;;;;;;;3.91;100.00;100510.88;6005611;28;20405;-75
2023/12/09 08:45:40;;;;;;;15.73;7.22;;;;;;;3.92;100.00;100512.53;6029135;28;20040;-73
2023/12/09 08:48:36;;;;;;;17.90;7.13;;;;;;;4.03;100.00;100517.03;6023813;28;20026;-72
2023/12/09 08:51:31;;;;;;;19.98;5.80;;;;;;;4.12;100.00;100519.00;6023179;28;20049;-73
2023/12/09 10:01:29;;;;;;;8.13;3.75;;;;;;;5.31;100.00;100467.13;6059851;28;20046;-73
2023/12/09 10:04:25;;;;;;;8.13;3.50;;;;;;;5.25;100.00;100475.47;5810375;29;1249746;-73
2023/12/09 10:07:21;;;;;;;9.77;3.80;;;;;;;5.12;100.00;100453.72;5951482;29;20051;-72
2023/12/09 10:10:16;;;;;;;9.57;3.90;;;;;;;5.20;100.00;100446.06;5934264;29;20130;-73
2023/12/09 10:13:12;;;;;;;8.77;3.70;;;;;;;5.25;100.00;100450.03;5951005;29;20467;-74
2023/12/09 10:16:07;;;;;;;9.85;3.83;;;;;;;5.28;100.00;100439.28;5950898;29;20028;-73
2023/12/09 10:19:03;;;;;;;9.63;4.00;;;;;;;5.32;100.00;100416.22;5934629;29;20036;-73
2023/12/09 10:21:58;;;;;;;10.33;4.43;;;;;;;5.31;100.00;100396.13;5951008;29;20064;-73
2023/12/09 10:24:55;;;;;;;12.32;3.70;;;;;;;5.33;100.00;100415.25;5950728;29;20646;-73
2023/12/09 10:27:51;;;;;;;11.55;4.85;;;;;;;5.26;100.00;100408.81;5945174;29;20072;-73
2023/12/09 10:30:46;;;;;;;11.38;4.80;;;;;;;5.24;100.00;100400.22;5951042;29;20028;-73
2023/12/09 10:33:44;;;;;;;10.65;3.85;;;;;;;5.15;100.00;100395.66;5935250;29;20059;-73
2023/12/09 10:36:40;;;;;;;10.50;4.22;;;;;;;5.13;100.00;100398.44;5951039;29;20032;-74
2023/12/09 10:39:36;;;;;;;11.07;4.07;;;;;;;5.08;100.00;100382.16;5951026;29;20028;-73
2023/12/09 10:42:31;;;;;;;12.10;3.90;;;;;;;5.19;100.00;100391.84;5950854;29;20602;-74
2023/12/09 10:45:28;;;;;;;7.63;3.30;;;;;;;5.28;100.00;100404.25;5950552;29;20370;-73
2023/12/09 10:48:23;;;;;;;10.68;3.90;;;;;;;5.28;100.00;100372.72;5950850;29;20175;-73
2023/12/09 10:51:18;;;;;;;9.32;3.65;;;;;;;5.32;100.00;100382.06;5950486;29;20028;-73
2023/12/09 10:54:14;;;;;;;9.45;4.43;;;;;;;5.29;100.00;100377.03;5949629;29;20534;-73
2023/12/09 10:57:10;;;;;;;8.60;3.92;;;;;;;5.33;100.00;100373.19;5951426;29;20520;-73
2023/12/09 11:00:10;;;;;;;7.07;3.53;;;;;;;5.36;100.00;100359.81;5950389;29;20031;-74
2023/12/09 11:03:07;;;;;;;8.25;4.00;;;;;;;5.43;100.00;100353.94;5912220;29;20486;-73
2023/12/09 11:06:05;;;;;;;9.07;3.88;;;;;;;5.46;100.00;100342.34;5965567;28;20031;-73
2023/12/09 11:09:01;;;;;;;7.88;3.25;;;;;;;5.58;100.00;100336.09;5974310;28;20043;-73
2023/12/09 11:11:59;;;;;;;9.20;3.45;;;;;;;5.66;100.00;100322.31;5994835;28;20042;-74
2023/12/09 11:14:55;;;;;;;12.45;4.50;;;;;;;5.65;100.00;100318.88;5981054;28;20043;-73
2023/12/09 11:17:51;;;;;;;8.13;3.45;;;;;;;5.63;100.00;100312.88;5981409;28;20418;-74
2023/12/09 11:20:51;;;;;;;12.48;4.78;;;;;;;5.67;100.00;100309.06;5980659;28;20394;-74
2023/12/09 11:23:49;;;;;;;7.88;3.47;;;;;;;5.71;100.00;100305.22;5981463;28;20027;-75
2023/12/09 11:26:48;;;;;;;11.77;4.00;;;;;;;5.75;100.00;100303.16;5981236;28;20034;-74
2023/12/09 11:29:44;;;;;;;11.18;4.15;;;;;;;5.79;100.00;100281.75;5978304;28;20042;-73
2023/12/09 11:32:39;;;;;;;10.65;3.63;;;;;;;5.91;100.00;100275.50;5980647;28;20035;-74
2023/12/09 11:35:36;;;;;;;10.55;3.88;;;;;;;6.04;100.00;100254.25;5980930;28;20500;-74
2023/12/09 11:38:31;;;;;;;8.02;3.22;;;;;;;6.11;100.00;100254.59;5980565;28;20051;-74
2023/12/09 11:41:26;;;;;;;8.60;3.00;;;;;;;6.11;100.00;100258.06;5980732;28;20046;-73
2023/12/09 11:44:22;;;;;;;7.47;3.58;;;;;;;6.07;100.00;100237.38;5980552;28;20318;-73
2023/12/09 11:47:18;;;;;;;6.75;2.92;;;;;;;6.15;100.00;100248.09;5980948;28;20046;-73
2023/12/09 11:50:15;;;;;;;11.63;3.72;;;;;;;6.07;100.00;100242.63;5979811;28;20043;-74
2023/12/09 11:53:11;;;;;;;6.18;3.42;;;;;;;6.00;100.00;100247.59;5980632;28;20474;-72
2023/12/09 11:56:06;;;;;;;8.23;3.40;;;;;;;6.02;100.00;100252.72;5980687;28;20035;-73
2023/12/09 11:59:02;;;;;;;8.65;3.42;;;;;;;6.14;100.00;100244.66;5980537;28;20027;-74
2023/12/09 12:01:58;;;;;;;9.07;3.15;;;;;;;6.17;100.00;100223.31;5974641;28;20425;-74
2023/12/09 12:04:53;;;;;;;13.20;3.75;;;;;;;6.18;100.00;100209.19;6026327;28;20117;-73
2023/12/09 12:07:49;;;;;;;10.03;3.17;;;;;;;6.15;100.00;100185.75;6068160;28;20048;-73
2023/12/09 12:10:44;;;;;;;6.20;3.20;;;;;;;6.13;100.00;100184.22;6066272;28;20369;-73
2023/12/09 12:13:40;;;;;;;10.07;2.70;;;;;;;6.03;100.00;100167.56;6061192;28;20021;-72
2023/12/09 12:16:35;;;;;;;9.93;4.35;;;;;;;6.02;100.00;100152.72;6066937;28;20108;-73
2023/12/09 12:19:31;;;;;;;10.18;5.05;;;;;;;5.98;100.00;100145.09;6063954;28;20033;-72
2023/12/09 12:22:27;;;;;;;20.80;4.43;;;;;;;5.88;100.00;100138.94;6064353;28;20479;-73
2023/12/09 12:25:25;;;;;;;12.77;4.70;;;;;;;5.89;100.00;100135.38;6057745;28;20026;-72
2023/12/09 12:28:20;;;;;;;16.27;6.47;;;;;;;5.86;100.00;100127.72;6049333;28;20380;-74
2023/12/09 12:31:16;;;;;;;14.25;4.78;;;;;;;5.97;100.00;100132.06;6064975;28;20049;-72
2023/12/09 12:34:16;;;;;;;9.23;4.23;;;;;;;5.86;100.00;100119.84;6066807;28;20566;-74
2023/12/09 12:37:11;;;;;;;11.45;4.57;;;;;;;5.89;100.00;100124.84;6056759;28;20033;-73
2023/12/09 12:40:07;;;;;;;10.10;4.70;;;;;;;5.85;100.00;100118.16;6065156;28;20030;-73
2023/12/09 12:43:04;;;;;;;9.38;4.18;;;;;;;5.87;100.00;100118.03;6056902;28;20105;-73
2023/12/09 12:45:59;;;;;;;12.15;4.70;;;;;;;5.89;100.00;100116.94;6063077;28;20034;-73
2023/12/09 12:48:55;;;;;;;8.47;3.87;;;;;;;5.92;100.00;100106.13;6071660;28;20114;-73
2023/12/09 12:51:50;;;;;;;7.50;3.60;;;;;;;6.02;100.00;100100.94;6072583;28;20975;-73
2023/12/09 12:54:46;;;;;;;9.63;3.97;;;;;;;6.07;100.00;100084.72;6063943;28;20314;-73
2023/12/09 12:57:43;;;;;;;8.43;4.03;;;;;;;6.14;100.00;100077.97;6060982;28;20113;-73
2023/12/09 13:00:39;;;;;;;9.52;4.38;;;;;;;6.13;100.00;100065.78;6057954;28;20041;-73
2023/12/09 13:03:34;;;;;;;6.25;3.22;;;;;;;6.06;100.00;100048.88;6049927;28;20027;-73
2023/12/09 13:06:29;;;;;;;6.70;3.20;;;;;;;6.08;100.00;100039.88;6108053;28;20059;-73
2023/12/09 13:09:25;;;;;;;5.70;2.57;;;;;;;6.07;100.00;100032.94;6113302;28;20032;-73
2023/12/09 13:12:20;;;;;;;5.15;2.45;;;;;;;6.12;100.00;100027.25;6115554;28;20298;-73
2023/12/09 13:15:16;;;;;;;8.40;3.40;;;;;;;6.16;100.00;100013.72;6108861;28;20083;-73
2023/12/09 13:18:12;;;;;;;5.93;2.80;;;;;;;6.21;100.00;100018.56;6121130;28;20286;-73
2023/12/09 13:21:09;;;;;;;4.70;2.35;;;;;;;6.28;100.00;100014.41;6112053;28;20059;-73
2023/12/09 13:24:04;;;;;;;4.80;2.60;;;;;;;6.15;100.00;99998.03;6102263;28;20114;-73
2023/12/09 13:27:00;;;;;;;9.73;2.90;;;;;;;6.22;100.00;100014.97;6117529;28;20459;-73
2023/12/09 13:29:55;;;;;;;11.60;3.07;;;;;;;6.28;100.00;100027.56;6095476;28;20081;-73
2023/12/09 13:32:50;;;;;;;6.40;3.15;;;;;;;6.29;100.00;100010.81;6114687;28;20696;-73
2023/12/09 13:35:48;;;;;;;5.50;2.80;;;;;;;6.23;100.00;100006.09;6117665;28;20024;-73
2023/12/09 13:38:44;;;;;;;7.45;2.72;;;;;;;6.31;100.00;99998.34;6114030;28;20263;-73
2023/12/09 13:41:42;;;;;;;5.90;2.60;;;;;;;6.28;100.00;99978.38;6107039;28;20475;-73
2023/12/09 13:44:38;;;;;;;6.85;2.80;;;;;;;6.25;100.00;99973.38;6119948;28;20078;-73
2023/12/09 13:47:33;;;;;;;15.00;3.60;;;;;;;6.29;100.00;99971.31;6112466;28;20029;-73
2023/12/09 13:50:29;;;;;;;10.38;4.05;;;;;;;6.34;100.00;99974.38;6117923;28;20445;-73
2023/12/09 13:53:24;;;;;;;9.25;3.30;;;;;;;6.33;100.00;99962.19;6115892;28;20040;-73
2023/12/09 13:56:20;;;;;;;5.05;2.42;;;;;;;6.29;100.00;99945.84;6113253;28;20431;-73
2023/12/09 13:59:16;;;;;;;6.28;2.90;;;;;;;6.36;100.00;99943.50;6114858;28;20112;-74
2023/12/09 14:02:11;;;;;;;7.63;3.45;;;;;;;6.26;100.00;99926.84;6103164;28;20067;-73
2023/12/09 14:05:09;;;;;;;5.37;2.53;;;;;;;6.26;100.00;99921.56;6105806;28;20162;-73
2023/12/09 14:08:04;;;;;;;10.18;4.10;;;;;;;6.12;100.00;99898.28;6113680;28;20025;-72
2023/12/09 14:11:00;;;;;;;6.78;3.25;;;;;;;6.03;100.00;99889.44;6118225;28;20029;-72
2023/12/09 14:13:55;;;;;;;5.75;2.30;;;;;;;6.01;100.00;99890.56;6110858;28;20108;-74
2023/12/09 14:16:51;;;;;;;4.78;2.20;;;;;;;5.91;100.00;99880.84;6114477;28;20095;-73
2023/12/09 14:19:46;;;;;;;6.43;2.35;;;;;;;5.82;100.00;99871.09;6118496;28;20032;-73
2023/12/09 14:22:44;;;;;;;4.88;2.17;;;;;;;5.81;100.00;99853.66;6113680;28;20593;-74
2023/12/09 14:25:40;;;;;;;5.20;2.20;;;;;;;5.79;100.00;99860.00;6116934;28;20032;-73
2023/12/09 14:28:35;;;;;;;4.40;2.08;;;;;;;5.76;100.00;99834.00;6106629;28;20467;-73
2023/12/09 14:31:31;;;;;;;5.43;2.20;;;;;;;5.75;100.00;99838.44;6113338;28;20033;-73
2023/12/09 14:34:26;;;;;;;6.32;2.80;;;;;;;5.73;100.00;99832.47;6119860;28;20263;-73